Time;durP1;ratioP1;P1;durP2;ratioP2;P2;SDS_P1;SDS_P2;PMS_P1;PMS_P2;Temp;Humidity;BMP_temperature;BMP_pressure;BME280_temperature;BME280_humidity;BME280_pressure;Samples;Min_cycle;Max_cycle;Signal;HPM_P1;HPM_P2
2022/04/23 00:00:09;;;;;;;13.20;9.50;;;;;;;8.27;78.42;99153.91;109126;1280;22483;-61
2022/04/23 00:02:42;;;;;;;14.60;10.10;;;;;;;8.27;78.24;99160.52;109155;1279;23295;-61
2022/04/23 00:05:10;;;;;;;11.70;9.70;;;;;;;8.26;78.26;99155.73;109110;1280;22469;-61
2022/04/23 00:07:38;;;;;;;16.40;10.10;;;;;;;8.26;78.27;99151.66;109135;1279;23367;-61
2022/04/23 00:10:08;;;;;;;14.00;10.70;;;;;;;8.25;78.26;99137.33;109149;1279;22486;-61
2022/04/23 00:12:37;;;;;;;11.30;8.50;;;;;;;8.25;78.25;99132.65;109159;1279;22427;-61
2022/04/23 00:15:07;;;;;;;10.30;9.00;;;;;;;8.24;78.22;99128.08;109153;1280;22461;-61
2022/04/23 00:17:36;;;;;;;13.20;9.30;;;;;;;8.23;77.91;99133.98;109124;1280;23135;-61
2022/04/23 00:20:05;;;;;;;15.80;9.80;;;;;;;8.23;78.05;99133.55;109210;1279;23138;-60
2022/04/23 00:22:35;;;;;;;13.50;10.20;;;;;;;8.22;78.01;99132.64;109169;1280;22420;-60
2022/04/23 00:25:04;;;;;;;15.10;9.70;;;;;;;8.21;78.09;99132.02;109135;1280;22445;-60
2022/04/23 00:27:32;;;;;;;12.20;9.40;;;;;;;8.21;78.15;99132.89;109139;1279;22488;-60
2022/04/23 00:30:01;;;;;;;11.40;9.40;;;;;;;8.22;78.33;99131.38;109068;1279;22574;-61
2022/04/23 00:32:31;;;;;;;12.50;9.40;;;;;;;8.20;78.26;99121.86;109189;1279;23141;-61
2022/04/23 00:35:05;;;;;;;12.40;9.00;;;;;;;8.19;78.24;99119.30;109124;1280;22455;-61
2022/04/23 00:37:36;;;;;;;11.80;9.30;;;;;;;8.17;78.21;99117.96;109073;1280;22546;-61
2022/04/23 00:40:06;;;;;;;12.40;9.60;;;;;;;8.17;78.36;99124.04;109208;1279;23532;-61
2022/04/23 00:42:51;;;;;;;10.60;8.60;;;;;;;8.16;78.64;99119.63;109225;1278;22445;-61
2022/04/23 00:45:20;;;;;;;11.70;9.60;;;;;;;8.15;78.59;99102.24;109054;1280;22509;-61
2022/04/23 00:47:49;;;;;;;11.20;9.40;;;;;;;8.13;78.67;99088.48;109087;1279;22538;-60
2022/04/23 00:50:23;;;;;;;11.20;9.10;;;;;;;8.10;78.89;99086.98;109133;1280;22397;-61
2022/04/23 00:52:58;;;;;;;13.70;10.50;;;;;;;8.06;78.79;99086.47;109139;1280;22403;-61
2022/04/23 00:55:31;;;;;;;12.00;9.30;;;;;;;8.04;79.06;99093.50;109079;1280;22432;-61
2022/04/23 00:58:02;;;;;;;15.20;9.90;;;;;;;8.02;79.03;99092.42;109173;1280;23211;-61
2022/04/23 01:00:33;;;;;;;10.00;8.70;;;;;;;7.99;79.21;99095.55;108930;1280;22407;-60
2022/04/23 01:03:16;;;;;;;11.10;8.90;;;;;;;7.97;79.34;99091.27;109170;1279;22425;-61
2022/04/23 01:05:45;;;;;;;10.80;8.00;;;;;;;7.94;79.23;99095.37;109159;1280;23438;-61
2022/04/23 01:08:15;;;;;;;10.40;8.20;;;;;;;7.91;79.40;99087.58;109105;1278;22461;-61
2022/04/23 01:10:48;;;;;;;12.20;8.30;;;;;;;7.88;79.65;99080.15;108712;1281;22398;-61
2022/04/23 01:13:18;;;;;;;10.90;7.90;;;;;;;7.85;79.68;99081.52;109110;1279;22248;-61
2022/04/23 01:16:05;;;;;;;9.60;6.90;;;;;;;7.81;79.58;99077.23;109122;1279;22432;-61
2022/04/23 01:18:40;;;;;;;10.80;7.50;;;;;;;7.76;79.69;99073.55;109168;1279;22418;-60
2022/04/23 01:21:13;;;;;;;9.80;7.80;;;;;;;7.71;79.71;99073.08;109113;1280;22375;-61
2022/04/23 01:23:42;;;;;;;8.20;7.20;;;;;;;7.67;80.01;99069.55;109118;1279;22422;-61
2022/04/23 01:26:10;;;;;;;11.30;7.40;;;;;;;7.66;79.94;99069.09;109066;1278;23163;-60
2022/04/23 01:28:40;;;;;;;11.20;7.00;;;;;;;7.64;79.91;99073.42;109099;1280;22555;-60
2022/04/23 01:31:11;;;;;;;11.10;6.80;;;;;;;7.61;79.93;99073.77;109142;1279;23445;-60
2022/04/23 01:33:39;;;;;;;11.00;6.70;;;;;;;7.58;79.77;99070.02;109162;1279;22555;-61
2022/04/23 01:36:09;;;;;;;9.40;6.70;;;;;;;7.57;79.91;99071.14;109144;1281;22400;-61
2022/04/23 01:38:37;;;;;;;12.00;6.90;;;;;;;7.54;79.72;99072.51;109145;1280;22466;-61
2022/04/23 01:41:05;;;;;;;9.30;7.30;;;;;;;7.51;79.90;99069.71;109163;1279;22241;-61
2022/04/23 01:43:36;;;;;;;10.00;6.90;;;;;;;7.50;80.05;99065.84;109149;1279;23161;-61
2022/04/23 01:46:06;;;;;;;7.60;6.50;;;;;;;7.46;79.97;99069.59;106185;1280;22775;-60
2022/04/23 01:48:34;;;;;;;9.40;6.40;;;;;;;7.43;79.83;99069.38;109126;1279;23227;-60
2022/04/23 01:51:04;;;;;;;7.30;6.20;;;;;;;7.39;79.97;99068.72;109058;1280;22401;-61
2022/04/23 01:53:33;;;;;;;7.50;6.00;;;;;;;7.35;79.78;99067.20;109157;1279;22952;-61
2022/04/23 01:56:01;;;;;;;9.00;6.70;;;;;;;7.33;80.29;99064.90;109140;1279;23090;-60
2022/04/23 01:58:32;;;;;;;9.50;6.30;;;;;;;7.31;80.11;99065.79;109059;1281;22391;-61
2022/04/23 02:01:02;;;;;;;9.90;6.70;;;;;;;7.30;80.49;99061.15;109092;1281;23287;-61
2022/04/23 02:03:31;;;;;;;9.80;6.90;;;;;;;7.28;80.45;99059.98;109163;1279;22391;-61
2022/04/23 02:05:59;;;;;;;10.20;6.60;;;;;;;7.26;80.73;99061.20;109038;1280;22217;-60
2022/04/23 02:08:28;;;;;;;8.20;6.30;;;;;;;7.24;80.76;99058.98;109049;1280;22513;-61
2022/04/23 02:10:57;;;;;;;8.10;5.90;;;;;;;7.22;80.86;99062.77;109124;1280;22420;-61
2022/04/23 02:13:35;;;;;;;6.80;5.50;;;;;;;7.20;80.88;99064.59;109187;1279;23596;-61
2022/04/23 02:16:04;;;;;;;8.80;6.20;;;;;;;7.18;80.89;99057.62;109046;1280;22497;-61
2022/04/23 02:18:34;;;;;;;7.80;5.60;;;;;;;7.16;81.24;99048.54;109071;1280;22412;-61
2022/04/23 02:21:02;;;;;;;8.80;6.10;;;;;;;7.12;81.42;99055.84;109091;1280;22497;-61
2022/04/23 02:23:31;;;;;;;9.30;6.80;;;;;;;7.09;81.78;99056.27;109158;1279;23736;-61
2022/04/23 02:25:59;;;;;;;7.80;6.10;;;;;;;7.05;82.05;99063.33;108998;1280;22392;-61
2022/04/23 02:28:27;;;;;;;9.20;6.50;;;;;;;7.02;82.10;99066.19;109023;1281;22424;-61
2022/04/23 02:30:56;;;;;;;7.30;6.30;;;;;;;7.00;82.27;99062.52;109139;1279;22235;-61
2022/04/23 02:33:26;;;;;;;8.50;6.80;;;;;;;6.98;82.63;99066.02;109075;1280;22368;-60
2022/04/23 02:35:55;;;;;;;8.00;5.70;;;;;;;6.96;83.08;99066.08;109129;1280;22412;-61
2022/04/23 02:38:24;;;;;;;9.80;6.80;;;;;;;6.92;83.67;99066.89;109231;1278;22419;-61
2022/04/23 02:40:52;;;;;;;10.50;7.40;;;;;;;6.89;83.75;99067.55;109110;1279;23248;-61
2022/04/23 02:43:21;;;;;;;9.30;6.30;;;;;;;6.85;83.88;99065.89;109156;1279;22417;-60
2022/04/23 02:45:49;;;;;;;10.00;6.40;;;;;;;6.81;84.30;99069.95;107993;1279;25270;-60
2022/04/23 02:48:17;;;;;;;8.10;6.60;;;;;;;6.78;84.63;99069.19;109007;1280;23243;-61
2022/04/23 02:50:46;;;;;;;8.50;6.10;;;;;;;6.74;84.79;99068.60;109127;1279;23176;-61
2022/04/23 02:53:16;;;;;;;9.40;6.10;;;;;;;6.72;84.57;99071.64;109086;1280;22480;-61
2022/04/23 02:55:46;;;;;;;11.20;6.50;;;;;;;6.70;85.15;99072.78;109104;1280;22514;-60
2022/04/23 02:58:14;;;;;;;9.80;7.00;;;;;;;6.68;85.09;99064.95;109062;1280;23166;-60
2022/04/23 03:00:42;;;;;;;8.70;6.10;;;;;;;6.65;85.54;99061.48;109092;1279;22424;-61
2022/04/23 03:03:11;;;;;;;9.80;6.00;;;;;;;6.63;85.80;99061.19;109066;1280;22538;-60
2022/04/23 03:05:42;;;;;;;6.90;6.20;;;;;;;6.60;85.75;99062.19;109098;1280;22519;-61
2022/04/23 03:08:13;;;;;;;7.70;6.20;;;;;;;6.58;86.00;99060.08;109097;1280;23150;-61
2022/04/23 03:10:41;;;;;;;10.10;6.20;;;;;;;6.56;86.14;99063.45;109092;1280;23135;-60
2022/04/23 03:13:10;;;;;;;6.60;5.90;;;;;;;6.55;86.13;99065.55;109231;1279;23469;-60
2022/04/23 03:15:39;;;;;;;7.90;5.60;;;;;;;6.54;86.27;99068.48;109172;1279;22419;-61
2022/04/23 03:18:10;;;;;;;8.10;5.70;;;;;;;6.52;86.18;99065.31;109062;1279;22407;-61
2022/04/23 03:20:40;;;;;;;9.90;5.80;;;;;;;6.50;86.34;99062.90;109144;1280;22381;-61
2022/04/23 03:23:12;;;;;;;8.10;6.10;;;;;;;6.50;86.49;99055.80;109056;1280;22494;-60
2022/04/23 03:25:41;;;;;;;9.80;5.90;;;;;;;6.49;86.74;99056.07;109170;1280;22375;-61
2022/04/23 03:28:13;;;;;;;10.10;6.70;;;;;;;6.48;86.27;99058.86;109106;1280;22445;-61
2022/04/23 03:30:44;;;;;;;7.30;6.20;;;;;;;6.47;86.55;99051.88;109101;1280;22462;-60
2022/04/23 03:33:13;;;;;;;8.80;6.10;;;;;;;6.47;86.60;99053.92;109111;1280;22473;-61
2022/04/23 03:35:42;;;;;;;9.20;6.20;;;;;;;6.46;86.44;99058.28;109102;1279;22337;-61
2022/04/23 03:38:11;;;;;;;10.10;7.00;;;;;;;6.45;86.56;99058.27;109095;1280;23302;-60
2022/04/23 03:40:39;;;;;;;11.40;6.80;;;;;;;6.44;86.47;99057.01;109105;1280;23168;-60
2022/04/23 03:43:07;;;;;;;9.70;5.50;;;;;;;6.44;86.41;99052.94;109221;1279;22405;-61
2022/04/23 03:45:37;;;;;;;7.80;6.80;;;;;;;6.43;86.40;99048.38;109214;1279;22425;-61
2022/04/23 03:48:06;;;;;;;11.00;6.70;;;;;;;6.42;86.72;99049.77;109082;1280;22400;-60
2022/04/23 03:50:35;;;;;;;7.20;6.10;;;;;;;6.40;86.61;99041.83;109059;1280;22503;-60
2022/04/23 03:53:05;;;;;;;7.90;6.40;;;;;;;6.39;86.91;99039.05;109070;1280;22523;-61
2022/04/23 03:55:33;;;;;;;10.80;7.10;;;;;;;6.37;87.06;99044.09;109109;1280;23270;-60
2022/04/23 03:58:03;;;;;;;9.10;6.40;;;;;;;6.35;87.07;99039.09;109221;1280;22433;-60
2022/04/23 04:00:34;;;;;;;8.10;6.30;;;;;;;6.35;87.29;99045.30;109223;1279;22222;-60
2022/04/23 04:03:02;;;;;;;9.50;7.10;;;;;;;6.34;87.10;99043.17;109084;1280;23174;-60
2022/04/23 04:05:50;;;;;;;10.30;6.70;;;;;;;6.33;87.55;99046.08;109107;1280;22462;-61
2022/04/23 04:08:20;;;;;;;8.90;6.50;;;;;;;6.31;87.68;99041.33;109217;1279;23542;-60
2022/04/23 04:10:48;;;;;;;8.40;6.30;;;;;;;6.30;87.31;99041.10;109195;1279;23249;-60
2022/04/23 04:13:17;;;;;;;9.10;7.00;;;;;;;6.30;87.58;99042.02;109228;1279;22418;-61
2022/04/23 04:15:45;;;;;;;8.70;6.10;;;;;;;6.29;87.31;99042.13;109221;1279;22418;-60
2022/04/23 04:18:13;;;;;;;10.80;6.30;;;;;;;6.29;87.98;99042.12;109082;1280;22479;-61
2022/04/23 04:20:41;;;;;;;8.40;6.50;;;;;;;6.29;87.83;99039.95;109014;1280;23256;-61
2022/04/23 04:23:11;;;;;;;10.70;6.40;;;;;;;6.29;88.06;99034.86;109001;1280;23319;-61
2022/04/23 04:25:43;;;;;;;8.70;6.50;;;;;;;6.29;88.18;99033.23;109188;1278;22521;-61
2022/04/23 04:28:12;;;;;;;9.40;6.50;;;;;;;6.30;87.83;99026.16;109171;1280;22527;-60
2022/04/23 04:33:28;;;;;;;9.60;7.00;;;;;;;6.33;88.10;99021.27;109160;1278;22484;-60
2022/04/23 04:35:56;;;;;;;7.50;6.30;;;;;;;6.34;88.10;99017.44;109172;1279;22505;-60
2022/04/23 04:38:24;;;;;;;10.10;6.60;;;;;;;6.36;88.10;99024.80;109159;1279;23003;-61
2022/04/23 04:40:54;;;;;;;10.90;6.50;;;;;;;6.38;88.22;99024.05;109144;1279;22443;-61
2022/04/23 04:43:22;;;;;;;10.50;7.10;;;;;;;6.42;87.96;99022.55;109172;1279;22573;-60
2022/04/23 04:45:50;;;;;;;14.70;7.40;;;;;;;6.46;88.01;99012.23;109211;1279;22436;-61
2022/04/23 04:48:23;;;;;;;9.40;6.90;;;;;;;6.50;87.80;99019.48;109501;1274;22378;-61
2022/04/23 04:50:51;;;;;;;10.60;7.60;;;;;;;6.54;87.96;99022.30;109505;1274;22423;-61
2022/04/23 04:53:19;;;;;;;12.30;6.90;;;;;;;6.57;87.94;99021.19;109523;1274;22547;-60
2022/04/23 04:55:48;;;;;;;11.00;7.50;;;;;;;6.60;87.66;99011.77;109402;1274;22470;-61
2022/04/23 04:58:16;;;;;;;9.90;7.10;;;;;;;6.65;87.42;99011.95;109489;1274;22467;-60
2022/04/23 05:00:44;;;;;;;8.60;6.80;;;;;;;6.69;87.41;99004.82;109537;1273;23309;-61
2022/04/23 05:03:13;;;;;;;11.80;7.10;;;;;;;6.74;87.24;99014.88;109395;1277;23240;-61
2022/04/23 05:05:44;;;;;;;11.00;7.60;;;;;;;6.80;87.35;99010.15;109474;1274;22425;-61
2022/04/23 05:08:13;;;;;;;10.20;6.80;;;;;;;6.87;86.90;99011.95;109512;1274;22432;-61
2022/04/23 05:10:45;;;;;;;9.50;7.10;;;;;;;6.92;86.82;99013.64;109530;1274;22548;-60
2022/04/23 05:13:13;;;;;;;8.90;7.30;;;;;;;7.00;86.58;99014.64;109469;1276;22414;-60
2022/04/23 05:15:44;;;;;;;7.10;6.40;;;;;;;7.07;86.54;99016.87;109492;1276;22877;-60
2022/04/23 05:18:13;;;;;;;11.50;7.40;;;;;;;7.14;86.61;99010.96;109466;1276;23218;-61
2022/04/23 05:20:41;;;;;;;9.50;7.70;;;;;;;7.20;86.16;99001.25;109531;1274;23119;-61
2022/04/23 05:23:09;;;;;;;10.70;7.40;;;;;;;7.26;86.05;99002.79;109542;1274;22414;-60
2022/04/23 05:25:38;;;;;;;9.10;7.40;;;;;;;7.32;85.75;99008.57;108612;1276;22553;-60
2022/04/23 05:28:09;;;;;;;11.20;7.10;;;;;;;7.36;85.45;99003.14;109446;1274;23605;-61
2022/04/23 05:30:42;;;;;;;8.30;6.60;;;;;;;7.38;85.04;98996.55;109514;1274;22393;-61
2022/04/23 05:33:11;;;;;;;11.40;7.30;;;;;;;7.39;85.11;98994.08;109559;1274;23331;-61
2022/04/23 05:35:42;;;;;;;8.80;7.00;;;;;;;7.42;85.11;98991.27;109486;1274;22414;-61
2022/04/23 05:38:12;;;;;;;8.80;7.10;;;;;;;7.44;85.13;98988.74;109468;1276;23384;-61
2022/04/23 05:40:41;;;;;;;11.20;7.20;;;;;;;7.47;85.01;98984.48;109491;1274;22413;-61
2022/04/23 05:43:09;;;;;;;10.30;7.10;;;;;;;7.49;85.07;98987.77;109486;1274;22436;-61
2022/04/23 05:45:40;;;;;;;7.80;6.80;;;;;;;7.51;85.00;98985.73;109506;1276;22527;-61
2022/04/23 05:48:08;;;;;;;9.20;7.40;;;;;;;7.54;85.00;98986.14;109561;1274;22420;-61
2022/04/23 05:50:36;;;;;;;8.90;7.20;;;;;;;7.56;84.84;98988.17;109638;1272;22383;-61
2022/04/23 05:53:05;;;;;;;9.10;7.10;;;;;;;7.56;84.44;98984.11;109751;1271;22425;-61
2022/04/23 05:55:34;;;;;;;12.00;7.40;;;;;;;7.59;84.75;98985.84;109729;1271;23775;-61
2022/04/23 05:58:02;;;;;;;10.20;7.30;;;;;;;7.63;84.59;98986.16;109656;1272;22382;-61
2022/04/23 06:00:30;;;;;;;11.60;8.10;;;;;;;7.66;84.61;98986.14;109714;1272;23267;-60
2022/04/23 06:02:58;;;;;;;11.20;6.70;;;;;;;7.68;84.09;98986.11;109728;1271;22438;-61
2022/04/23 06:05:30;;;;;;;10.00;7.00;;;;;;;7.71;83.75;98983.13;109748;1271;22996;-61
2022/04/23 06:08:00;;;;;;;10.40;7.40;;;;;;;7.75;83.86;98984.05;109736;1271;23527;-60
2022/04/23 06:10:30;;;;;;;10.80;8.20;;;;;;;7.80;83.62;98980.56;109750;1271;22417;-60
2022/04/23 06:13:00;;;;;;;15.80;8.80;;;;;;;7.84;83.84;98982.61;109715;1271;22493;-61
2022/04/23 06:15:35;;;;;;;9.70;8.00;;;;;;;7.92;83.65;98981.79;109699;1271;22399;-60
2022/04/23 06:18:04;;;;;;;13.00;7.90;;;;;;;8.01;83.62;98976.46;109718;1271;22511;-60
2022/04/23 06:20:32;;;;;;;9.40;7.80;;;;;;;8.15;83.64;98974.06;109731;1271;22492;-60
2022/04/23 06:23:05;;;;;;;9.60;7.90;;;;;;;8.32;83.82;98968.33;109725;1271;22400;-60
2022/04/23 06:25:36;;;;;;;9.70;7.30;;;;;;;8.51;83.38;98972.55;109734;1271;22911;-60
2022/04/23 06:28:04;;;;;;;9.00;7.60;;;;;;;8.64;82.24;98968.30;109721;1270;22533;-60
2022/04/23 06:30:33;;;;;;;11.30;8.30;;;;;;;8.71;81.10;98960.98;109752;1270;22406;-60
2022/04/23 06:33:04;;;;;;;9.20;7.50;;;;;;;8.72;80.13;98956.87;109791;1270;22477;-60
2022/04/23 06:35:34;;;;;;;9.80;7.40;;;;;;;8.73;79.89;98956.06;109715;1272;23039;-61
2022/04/23 06:38:03;;;;;;;7.70;7.00;;;;;;;8.73;79.83;98954.54;109698;1272;22393;-60
2022/04/23 06:40:31;;;;;;;13.90;8.60;;;;;;;8.78;80.05;98950.02;109720;1271;22360;-61
2022/04/23 06:43:00;;;;;;;12.30;8.20;;;;;;;8.85;79.98;98942.02;109745;1271;22463;-60
2022/04/23 06:45:33;;;;;;;9.10;7.70;;;;;;;8.95;79.29;98945.40;109606;1273;22406;-60
2022/04/23 06:48:06;;;;;;;12.10;7.70;;;;;;;9.04;79.12;98942.54;109716;1271;22375;-60
2022/04/23 06:50:36;;;;;;;10.60;7.70;;;;;;;9.14;79.14;98940.85;109688;1273;23117;-61
2022/04/23 06:53:04;;;;;;;11.50;8.00;;;;;;;9.24;79.17;98945.10;109712;1271;22517;-60
2022/04/23 06:55:35;;;;;;;9.00;6.90;;;;;;;9.37;78.90;98935.48;109736;1271;22377;-59
2022/04/23 06:58:03;;;;;;;9.10;7.50;;;;;;;9.47;78.28;98941.64;109729;1271;22537;-60
2022/04/23 07:00:31;;;;;;;12.00;7.50;;;;;;;9.54;76.96;98938.17;109720;1271;23171;-59
2022/04/23 07:02:59;;;;;;;10.30;7.30;;;;;;;9.56;76.34;98935.46;109718;1272;22400;-60
2022/04/23 07:05:28;;;;;;;9.90;6.90;;;;;;;9.56;76.04;98930.68;109135;1271;22573;-59
2022/04/23 07:07:59;;;;;;;13.20;8.00;;;;;;;9.56;76.01;98934.64;105310;1271;22570;-62
2022/04/23 07:10:29;;;;;;;8.50;7.10;;;;;;;9.59;75.87;98933.36;105408;1271;25012;-60
2022/04/23 07:12:58;;;;;;;8.90;7.40;;;;;;;9.63;75.93;98934.25;105339;1271;24433;-61
2022/04/23 07:15:28;;;;;;;10.80;8.00;;;;;;;9.69;75.90;98934.86;109739;1271;22513;-60
2022/04/23 07:17:57;;;;;;;11.30;7.60;;;;;;;9.80;75.40;98926.36;109702;1272;22657;-60
2022/04/23 07:20:26;;;;;;;8.20;6.80;;;;;;;9.91;75.99;98926.83;109717;1270;23163;-60
2022/04/23 07:25:42;;;;;;;9.20;7.00;;;;;;;10.26;74.47;98916.91;109753;1271;22366;-60
2022/04/23 07:28:15;;;;;;;12.60;7.50;;;;;;;10.42;74.05;98917.52;109751;1270;22398;-60
2022/04/23 07:30:44;;;;;;;9.50;6.20;;;;;;;10.55;73.76;98908.81;109750;1271;23319;-60
2022/04/23 07:37:28;;;;;;;10.80;6.00;;;;;;;10.68;72.31;98906.63;109706;1272;22427;-60
2022/04/23 07:38:48;;;;;;;9.70;7.20;;;;;;;10.93;70.58;98905.18;109747;1270;22448;-60
2022/04/23 07:41:18;;;;;;;8.00;6.80;;;;;;;11.02;70.50;98901.67;109745;1270;22415;-59
2022/04/23 07:43:46;;;;;;;8.70;6.40;;;;;;;11.10;69.00;98891.08;109728;1271;22424;-60
2022/04/23 07:46:17;;;;;;;8.30;6.60;;;;;;;11.13;68.92;98889.04;109655;1272;22442;-60
2022/04/23 07:48:46;;;;;;;7.30;6.50;;;;;;;11.20;69.21;98888.21;109786;1271;23053;-60
2022/04/23 07:51:15;;;;;;;8.60;6.00;;;;;;;11.29;69.36;98885.71;109727;1271;22425;-60
2022/04/23 07:53:43;;;;;;;8.70;6.20;;;;;;;11.40;68.67;98894.46;109703;1271;23327;-60
2022/04/23 07:56:17;;;;;;;6.90;5.20;;;;;;;11.51;68.40;98887.06;109706;1271;22457;-60
2022/04/23 07:58:45;;;;;;;9.00;6.10;;;;;;;11.62;67.91;98881.29;109735;1271;22476;-60
2022/04/23 08:01:16;;;;;;;8.90;6.20;;;;;;;11.72;67.45;98880.42;109759;1269;22378;-60
2022/04/23 08:03:44;;;;;;;9.80;5.90;;;;;;;11.81;67.00;98878.48;109731;1271;23238;-60
2022/04/23 08:06:14;;;;;;;6.20;5.40;;;;;;;11.90;66.90;98871.93;109743;1270;23062;-59
2022/04/23 08:08:43;;;;;;;8.60;6.10;;;;;;;12.02;66.23;98870.38;109750;1271;22411;-60
2022/04/23 08:11:12;;;;;;;9.00;5.90;;;;;;;12.13;65.99;98875.89;109752;1271;22392;-59
2022/04/23 08:13:40;;;;;;;8.20;5.60;;;;;;;12.20;65.17;98868.19;109707;1272;23130;-61
2022/04/23 08:16:08;;;;;;;7.60;5.30;;;;;;;12.25;64.06;98865.90;109687;1272;22377;-60
2022/04/23 08:18:36;;;;;;;10.30;5.50;;;;;;;12.31;64.22;98870.38;109710;1272;22450;-59
2022/04/23 08:21:05;;;;;;;8.40;5.00;;;;;;;12.40;63.52;98854.91;109731;1271;22409;-60
2022/04/23 08:23:38;;;;;;;6.80;5.50;;;;;;;12.48;63.31;98855.06;109621;1272;22270;-59
2022/04/23 08:26:06;;;;;;;6.10;5.00;;;;;;;12.57;63.92;98853.11;109760;1270;22400;-60
2022/04/23 08:31:22;;;;;;;8.30;5.20;;;;;;;12.79;63.03;98848.88;109650;1272;23076;-60
2022/04/23 08:34:00;;;;;;;9.10;5.50;;;;;;;12.85;61.71;98841.58;109735;1272;22443;-60
2022/04/23 08:36:36;;;;;;;7.20;5.60;;;;;;;12.91;61.24;98837.14;109764;1271;23228;-60
2022/04/23 08:39:06;;;;;;;7.90;5.40;;;;;;;12.97;61.27;98834.35;109751;1271;22485;-60
2022/04/23 08:41:36;;;;;;;8.30;5.20;;;;;;;13.05;60.99;98833.55;109751;1271;22382;-60
2022/04/23 08:44:08;;;;;;;8.40;5.00;;;;;;;13.09;60.38;98828.42;109756;1270;22566;-60
2022/04/23 08:46:38;;;;;;;6.10;5.30;;;;;;;13.14;60.50;98822.18;109722;1271;22407;-59
2022/04/23 08:49:07;;;;;;;6.20;4.60;;;;;;;13.17;60.24;98825.45;109711;1272;22454;-60
2022/04/23 08:51:37;;;;;;;8.70;4.80;;;;;;;13.20;60.03;98820.83;109732;1271;22400;-60
2022/04/23 08:54:10;;;;;;;8.10;5.20;;;;;;;13.24;59.79;98811.42;109666;1272;22442;-60
2022/04/23 08:56:41;;;;;;;8.50;5.10;;;;;;;13.29;59.23;98816.87;109720;1271;23431;-59
2022/04/23 08:59:13;;;;;;;5.80;4.20;;;;;;;13.31;58.69;98811.80;109630;1272;22393;-59
2022/04/23 09:01:48;;;;;;;5.60;4.50;;;;;;;13.32;57.55;98805.19;109732;1270;22401;-59
2022/04/23 09:04:19;;;;;;;5.20;4.30;;;;;;;13.33;56.69;98802.44;109714;1272;22406;-59
2022/04/23 09:06:48;;;;;;;9.30;4.90;;;;;;;13.30;57.34;98801.38;109756;1271;22476;-60
2022/04/23 09:09:20;;;;;;;6.90;4.30;;;;;;;13.30;57.71;98803.51;109751;1271;22404;-59
2022/04/23 09:11:52;;;;;;;8.40;4.70;;;;;;;13.34;57.82;98798.86;109736;1271;23091;-59
2022/04/23 09:14:25;;;;;;;4.90;4.10;;;;;;;13.39;57.52;98800.40;109714;1271;22395;-60
2022/04/23 09:25:35;;;;;;;6.10;4.50;;;;;;;13.29;56.44;98799.36;105467;1271;24320;-61
2022/04/23 09:28:29;;;;;;;5.90;4.40;;;;;;;13.24;56.86;98795.13;109737;1271;22397;-59
2022/04/23 09:31:02;;;;;;;;;;;;;;;13.22;57.50;98784.70;109756;1271;23208;-60
2022/04/23 09:33:54;;;;;;;5.40;4.10;;;;;;;13.21;57.65;98780.11;109698;1271;22548;-60
2022/04/23 09:36:24;;;;;;;5.90;3.90;;;;;;;13.20;57.88;98785.54;109726;1271;22387;-60
2022/04/23 09:39:00;;;;;;;5.60;4.10;;;;;;;13.21;56.95;98772.22;109729;1270;22658;-59
2022/04/23 09:41:32;;;;;;;6.60;4.50;;;;;;;13.21;57.21;98769.33;109772;1270;23499;-60
2022/04/23 09:44:09;;;;;;;4.90;4.00;;;;;;;13.23;57.44;98769.79;109699;1271;22397;-60
2022/04/23 09:46:48;;;;;;;5.50;4.50;;;;;;;13.26;57.45;98769.77;107065;1270;25295;-61
2022/04/23 09:49:34;;;;;;;7.40;5.10;;;;;;;13.29;57.73;98767.24;109679;1272;23230;-60
2022/04/23 09:52:11;;;;;;;7.00;4.00;;;;;;;13.31;57.08;98767.33;109741;1271;22395;-60
2022/04/23 09:54:39;;;;;;;8.30;4.00;;;;;;;13.35;57.59;98761.42;109723;1271;22416;-61
2022/04/23 09:57:08;;;;;;;6.50;4.80;;;;;;;13.39;57.71;98755.73;109730;1271;22414;-60
2022/04/23 09:59:36;;;;;;;8.60;5.30;;;;;;;13.43;57.38;98753.14;109725;1271;22447;-60
2022/04/23 10:02:07;;;;;;;7.70;4.60;;;;;;;13.47;57.18;98747.84;109714;1271;23561;-60
2022/04/23 10:04:37;;;;;;;6.90;3.70;;;;;;;13.49;56.43;98748.65;109613;1271;22433;-60
2022/04/23 10:07:05;;;;;;;7.70;3.90;;;;;;;13.47;55.88;98744.67;109721;1273;22770;-61
2022/04/23 10:09:38;;;;;;;6.20;4.50;;;;;;;13.45;56.52;98749.02;109664;1270;22443;-60
2022/04/23 10:14:19;;;;;;;6.70;3.40;;;;;;;13.55;56.38;98733.94;101956;1311;546485;-60
2022/04/23 10:16:48;;;;;;;5.80;3.40;;;;;;;13.64;55.01;98737.19;108452;1285;23298;-61
2022/04/23 10:19:17;;;;;;;4.10;3.10;;;;;;;13.73;54.30;98735.17;108541;1285;22550;-61
2022/04/23 10:22:19;;;;;;;4.40;3.00;;;;;;;13.82;53.98;98728.02;108511;1285;22502;-61
2022/04/23 10:25:10;;;;;;;6.90;3.80;;;;;;;13.91;53.95;98720.23;108246;1286;23199;-60
2022/04/23 10:27:44;;;;;;;7.10;3.00;;;;;;;14.08;54.87;98720.88;108494;1282;189001;-60
2022/04/23 10:30:17;;;;;;;7.10;3.20;;;;;;;14.27;53.74;98713.48;108570;1283;23437;-61
2022/04/23 10:32:45;;;;;;;5.60;3.70;;;;;;;14.43;53.11;98710.88;108546;1283;22493;-60
2022/04/23 10:35:19;;;;;;;5.30;3.40;;;;;;;14.57;52.96;98708.12;108548;1285;22450;-60
2022/04/23 10:37:56;;;;;;;3.30;2.90;;;;;;;14.66;51.44;98703.27;108552;1284;22385;-60
2022/04/23 10:40:24;;;;;;;4.90;3.40;;;;;;;14.72;51.48;98692.73;108516;1285;22432;-61
2022/04/23 10:43:06;;;;;;;6.40;2.80;;;;;;;14.79;50.76;98685.23;108586;1283;22429;-61
2022/04/23 10:45:35;;;;;;;6.70;3.20;;;;;;;14.85;48.59;98683.84;107775;1284;22573;-60
2022/04/23 10:48:24;;;;;;;2.70;2.50;;;;;;;14.85;49.26;98693.65;104280;1283;23979;-60
2022/04/23 10:51:01;;;;;;;4.00;2.90;;;;;;;14.87;49.26;98689.39;108543;1285;22590;-61
2022/04/23 10:53:37;;;;;;;4.50;2.70;;;;;;;14.93;50.42;98685.21;108557;1283;22391;-61
2022/04/23 10:56:06;;;;;;;4.60;2.70;;;;;;;15.07;49.06;98683.70;108548;1284;22468;-61
2022/04/23 10:58:37;;;;;;;4.40;2.90;;;;;;;15.19;47.35;98682.40;108541;1285;22287;-61
2022/04/23 11:01:22;;;;;;;8.00;3.20;;;;;;;15.25;47.10;98678.11;108536;1284;22499;-61
2022/04/23 11:04:05;;;;;;;4.30;3.10;;;;;;;15.31;47.43;98681.02;108566;1283;22405;-61
2022/04/23 11:12:36;;;;;;;7.50;2.90;;;;;;;15.52;46.63;98671.69;108543;1285;23280;-61
2022/04/23 11:15:15;;;;;;;5.20;2.50;;;;;;;15.53;46.61;98670.20;108516;1284;22431;-61
2022/04/23 11:17:47;;;;;;;4.70;3.10;;;;;;;15.54;47.48;98663.92;108539;1285;23334;-61
2022/04/23 11:20:32;;;;;;;4.30;2.90;;;;;;;15.59;48.29;98663.83;108532;1282;22468;-61
2022/04/23 11:23:01;;;;;;;6.10;2.80;;;;;;;15.70;48.27;98660.31;108585;1283;22530;-61
2022/04/23 11:25:30;;;;;;;8.50;3.30;;;;;;;15.81;48.86;98654.80;108606;1282;22411;-61
2022/04/23 11:28:14;;;;;;;3.70;2.90;;;;;;;15.92;47.02;98662.64;108545;1284;22453;-61
2022/04/23 11:30:42;;;;;;;5.60;3.40;;;;;;;15.98;46.54;98651.33;109152;1279;22405;-61
2022/04/23 11:33:14;;;;;;;7.00;3.10;;;;;;;16.02;45.95;98650.75;109143;1279;22435;-61
2022/04/23 11:35:48;;;;;;;6.30;2.70;;;;;;;16.05;45.86;98639.95;109595;1272;22326;-61
2022/04/23 11:38:24;;;;;;;3.90;3.00;;;;;;;16.08;45.56;98641.41;109527;1273;22443;-61
2022/04/23 11:40:56;;;;;;;4.50;2.70;;;;;;;16.11;45.46;98637.70;109555;1273;22462;-61
2022/04/23 11:43:31;;;;;;;4.70;2.80;;;;;;;16.11;44.89;98631.06;109528;1273;22438;-61
2022/04/23 11:46:02;;;;;;;3.90;2.40;;;;;;;16.08;45.05;98632.73;109604;1273;22594;-61
2022/04/23 11:48:42;;;;;;;3.90;2.30;;;;;;;16.04;45.34;98622.50;109555;1274;22510;-61
2022/04/23 11:51:12;;;;;;;5.10;3.00;;;;;;;16.05;45.38;98623.80;109544;1274;22424;-61
2022/04/23 11:53:58;;;;;;;5.90;2.60;;;;;;;16.07;45.58;98627.15;109515;1274;22485;-61
2022/04/23 11:56:32;;;;;;;3.40;2.60;;;;;;;16.09;45.75;98624.73;109524;1273;22500;-61
2022/04/23 11:59:04;;;;;;;6.70;2.50;;;;;;;16.10;45.28;98617.34;109573;1274;22247;-61
2022/04/23 12:01:34;;;;;;;5.30;2.60;;;;;;;16.09;45.97;98615.45;109553;1271;23583;-61
2022/04/23 12:04:03;;;;;;;6.40;3.00;;;;;;;16.11;46.54;98609.59;109532;1273;22387;-61
2022/04/23 12:06:43;;;;;;;5.40;2.90;;;;;;;16.15;46.59;98608.73;109546;1274;23229;-62
2022/04/23 12:09:13;;;;;;;7.70;2.70;;;;;;;16.23;45.59;98611.05;109541;1273;22611;-62
2022/04/23 12:11:45;;;;;;;4.40;2.30;;;;;;;16.28;46.40;98606.46;109491;1273;22265;-62